Deer Lake, Canada
Current Conditions -  °F | °C
As of 11:16 PM on Friday 21 Nov 2014 (Local Time) from CYDF Reporting Station
Snow Showers Snow Showers  
Wind Chill: 11°   Ceiling: 3800
Heat Index: 21°   Visibility: 12mi
Dew Point: 18°   Wind: 9mph
Humidity: 86%   Direction: 250°WSW
Pressure: 29.5"   Gusts: NA
Location:  49.21°N, 57.4°W
Report Text: CYDF 220216Z 25008KT 12SM -SHSN SCT016 BKN038 M06/M08 A2950 RMK SC4SC3 SLP992
Loading
Personal Weather Stations






























Interactive Weather Map New forecast layout! Learn more

10-Day Weather Forecast

Advertisements
Track Severe Weather on mobile